createdAt,value
2023-04-04T00:00:44.028Z,1004.59
2023-04-04T00:01:43.920Z,1004.56
2023-04-04T00:02:43.972Z,1004.66
2023-04-04T00:03:44.059Z,1004.54
2023-04-04T00:04:43.965Z,1004.54
2023-04-04T00:05:43.887Z,1004.52
2023-04-04T00:06:43.855Z,1004.52
2023-04-04T00:07:43.848Z,1004.54
2023-04-04T00:08:43.867Z,1004.59
2023-04-04T00:09:43.839Z,1004.64
2023-04-04T00:10:43.848Z,1004.70
2023-04-04T00:11:43.809Z,1004.62
2023-04-04T00:12:43.799Z,1004.57
2023-04-04T00:13:43.785Z,1004.54
2023-04-04T00:14:43.769Z,1004.57
2023-04-04T00:15:43.784Z,1004.60
2023-04-04T00:16:43.751Z,1004.62
2023-04-04T00:17:43.826Z,1004.57
2023-04-04T00:18:43.729Z,1004.48
2023-04-04T00:19:43.737Z,1004.56
2023-04-04T00:20:43.713Z,1004.52
2023-04-04T00:21:43.711Z,1004.51
2023-04-04T00:22:43.696Z,1004.48
2023-04-04T00:23:43.684Z,1004.56
2023-04-04T00:24:43.671Z,1004.56
2023-04-04T00:25:43.663Z,1004.58
2023-04-04T00:26:43.659Z,1004.56
2023-04-04T00:27:43.646Z,1004.59
2023-04-04T00:28:43.632Z,1004.59
2023-04-04T00:29:43.620Z,1004.53
2023-04-04T00:30:43.601Z,1004.63
2023-04-04T00:31:43.653Z,1004.55
2023-04-04T00:32:43.721Z,1004.60
2023-04-04T00:33:43.580Z,1004.66
2023-04-04T00:34:43.563Z,1004.58
2023-04-04T00:35:43.660Z,1004.62
2023-04-04T00:36:43.554Z,1004.55
2023-04-04T00:37:43.539Z,1004.53
2023-04-04T00:38:43.524Z,1004.53
2023-04-04T00:39:43.511Z,1004.52
2023-04-04T00:40:43.610Z,1004.57
2023-04-04T00:41:43.504Z,1004.47
2023-04-04T00:42:43.513Z,1004.47
2023-04-04T00:43:43.474Z,1004.54
2023-04-04T00:44:43.457Z,1004.49
2023-04-04T00:45:43.494Z,1004.49
2023-04-04T00:46:43.453Z,1004.44
2023-04-04T00:47:43.490Z,1004.50
2023-04-04T00:48:43.418Z,1004.48
2023-04-04T00:49:43.405Z,1004.46
2023-04-04T00:50:43.395Z,1004.49
2023-04-04T00:51:43.401Z,1004.56
2023-04-04T00:52:43.416Z,1004.46
2023-04-04T00:53:43.369Z,1004.44
2023-04-04T00:54:43.353Z,1004.42
2023-04-04T00:55:43.373Z,1004.47
2023-04-04T00:56:43.342Z,1004.40
2023-04-04T00:57:43.341Z,1004.47
2023-04-04T00:58:43.322Z,1004.35
2023-04-04T00:59:43.311Z,1004.43
2023-04-04T01:00:43.289Z,1004.47
2023-04-04T01:01:43.299Z,1004.42
2023-04-04T01:02:43.272Z,1004.44
2023-04-04T01:03:43.253Z,1004.46
2023-04-04T01:04:43.271Z,1004.46
2023-04-04T01:05:43.232Z,1004.51
2023-04-04T01:06:43.240Z,1004.35
2023-04-04T01:07:43.223Z,1004.30
2023-04-04T01:08:43.199Z,1004.35
2023-04-04T01:09:43.189Z,1004.34
2023-04-04T01:10:43.296Z,1004.36
2023-04-04T01:11:43.179Z,1004.40
2023-04-04T01:12:43.165Z,1004.38
2023-04-04T01:13:43.145Z,1004.32
2023-04-04T01:14:43.128Z,1004.30
2023-04-04T01:15:43.127Z,1004.28
2023-04-04T01:16:43.130Z,1004.31
2023-04-04T01:17:43.166Z,1004.32
2023-04-04T01:18:43.097Z,1004.31
2023-04-04T01:19:43.091Z,1004.31
2023-04-04T01:20:43.077Z,1004.33
2023-04-04T01:21:43.071Z,1004.38
2023-04-04T01:22:43.044Z,1004.31
2023-04-04T01:23:43.034Z,1004.26
2023-04-04T01:24:43.027Z,1004.31
2023-04-04T01:25:43.013Z,1004.34
2023-04-04T01:26:43.021Z,1004.24
2023-04-04T01:27:43.009Z,1004.26
2023-04-04T01:28:43.019Z,1004.20
2023-04-04T01:29:42.987Z,1004.21
2023-04-04T01:30:43.203Z,1004.21
2023-04-04T01:31:42.974Z,1004.24
2023-04-04T01:32:42.968Z,1004.27
2023-04-04T01:33:42.934Z,1004.23
2023-04-04T01:34:42.920Z,1004.19
2023-04-04T01:35:42.936Z,1004.39
2023-04-04T01:36:42.916Z,1004.23
2023-04-04T01:37:42.943Z,1004.25
2023-04-04T01:38:42.890Z,1004.22
2023-04-04T01:39:42.875Z,1004.28
2023-04-04T01:40:42.859Z,1004.23
2023-04-04T01:41:42.892Z,1004.26
2023-04-04T01:42:42.841Z,1004.25
2023-04-04T01:43:42.831Z,1004.30
2023-04-04T01:44:42.819Z,1004.23
2023-04-04T01:45:42.840Z,1004.22
2023-04-04T01:46:42.820Z,1004.20
2023-04-04T01:47:42.838Z,1004.23
2023-04-04T01:48:42.775Z,1004.36
2023-04-04T01:49:42.766Z,1004.24
2023-04-04T01:50:42.872Z,1004.22
2023-04-04T01:51:42.763Z,1004.27
2023-04-04T01:52:42.738Z,1004.18
2023-04-04T01:53:42.727Z,1004.29
2023-04-04T01:54:42.712Z,1004.25
2023-04-04T01:55:42.725Z,1004.28
2023-04-04T01:56:42.711Z,1004.13
2023-04-04T01:57:42.680Z,1004.12
2023-04-04T01:58:42.685Z,1004.17
2023-04-04T01:59:42.667Z,1004.16
2023-04-04T02:00:42.926Z,1004.21
2023-04-04T02:01:42.695Z,1004.09
2023-04-04T02:02:42.731Z,1004.16
2023-04-04T02:03:42.643Z,1004.21
2023-04-04T02:04:42.602Z,1004.16
2023-04-04T02:05:42.597Z,1004.21
2023-04-04T02:06:42.598Z,1004.08
2023-04-04T02:07:42.580Z,1004.19
2023-04-04T02:08:42.558Z,1004.21
2023-04-04T02:09:42.551Z,1004.11
2023-04-04T02:10:42.789Z,1004.14
2023-04-04T02:11:42.561Z,1004.17
2023-04-04T02:12:42.528Z,1004.16
2023-04-04T02:13:42.505Z,1004.19
2023-04-04T02:14:42.503Z,1004.16
2023-04-04T02:15:42.522Z,1004.13
2023-04-04T02:16:42.493Z,1004.20
2023-04-04T02:17:42.506Z,1004.29
2023-04-04T02:18:42.450Z,1004.19
2023-04-04T02:19:42.445Z,1004.30
2023-04-04T02:20:42.431Z,1004.21
2023-04-04T02:21:42.419Z,1004.16
2023-04-04T02:22:42.421Z,1004.18
2023-04-04T02:23:42.399Z,1004.11
2023-04-04T02:24:42.383Z,1004.11
2023-04-04T02:25:42.376Z,1004.08
2023-04-04T02:26:42.361Z,1004.21
2023-04-04T02:27:42.375Z,1004.11
2023-04-04T02:28:42.349Z,1004.09
2023-04-04T02:29:42.341Z,1004.02
2023-04-04T02:30:42.480Z,1004.06
2023-04-04T02:31:42.361Z,1004.04
2023-04-04T02:32:42.348Z,1004.08
2023-04-04T02:33:42.288Z,1004.01
2023-04-04T02:34:42.289Z,1004.05
2023-04-04T02:35:42.388Z,1004.01
2023-04-04T02:36:42.258Z,1003.93
2023-04-04T02:37:42.265Z,1004.02
2023-04-04T02:38:42.230Z,1003.96
2023-04-04T02:39:42.237Z,1003.93
2023-04-04T02:40:42.523Z,1004.03
2023-04-04T02:41:42.203Z,1003.97
2023-04-04T02:42:42.205Z,1003.98
2023-04-04T02:43:42.186Z,1004.00
2023-04-04T02:44:42.165Z,1003.94
2023-04-04T02:45:42.169Z,1003.97
2023-04-04T02:46:42.174Z,1004.00
2023-04-04T02:47:42.175Z,1003.97
2023-04-04T02:48:42.130Z,1003.94
2023-04-04T02:49:42.121Z,1003.92
2023-04-04T02:50:42.296Z,1004.05
2023-04-04T02:51:42.152Z,1003.87
2023-04-04T02:52:42.100Z,1003.88
2023-04-04T02:53:42.090Z,1003.87
2023-04-04T02:54:42.063Z,1003.87
2023-04-04T02:55:42.062Z,1003.89
2023-04-04T02:56:42.058Z,1003.83
2023-04-04T02:57:42.048Z,1003.79
2023-04-04T02:58:42.792Z,1003.85
2023-04-04T02:59:42.070Z,1003.80
2023-04-04T03:00:42.452Z,1003.86
2023-04-04T03:01:41.999Z,1003.78
2023-04-04T03:02:42.157Z,1003.82
2023-04-04T03:03:42.132Z,1003.75
2023-04-04T03:04:42.006Z,1003.80
2023-04-04T03:05:41.967Z,1003.85
2023-04-04T03:06:41.975Z,1003.75
2023-04-04T03:07:41.949Z,1003.79
2023-04-04T03:08:41.939Z,1003.83
2023-04-04T03:09:41.913Z,1003.76
2023-04-04T03:10:42.146Z,1003.76
2023-04-04T03:11:41.889Z,1003.66
2023-04-04T03:12:41.889Z,1003.69
2023-04-04T03:13:41.873Z,1003.63
2023-04-04T03:14:41.864Z,1003.63
2023-04-04T03:15:41.845Z,1003.66
2023-04-04T03:16:41.884Z,1003.65
2023-04-04T03:17:41.905Z,1003.65
2023-04-04T03:18:41.822Z,1003.71
2023-04-04T03:19:41.814Z,1003.68
2023-04-04T03:20:42.067Z,1003.69
2023-04-04T03:21:41.789Z,1003.79
2023-04-04T03:22:41.792Z,1003.67
2023-04-04T03:23:41.765Z,1003.60
2023-04-04T03:24:41.765Z,1003.62
2023-04-04T03:25:41.741Z,1003.72
2023-04-04T03:26:41.741Z,1003.64
2023-04-04T03:27:41.775Z,1003.68
2023-04-04T03:28:41.720Z,1003.57
2023-04-04T03:29:41.701Z,1003.75
2023-04-04T03:30:41.870Z,1003.57
2023-04-04T03:31:41.753Z,1003.58
2023-04-04T03:32:41.725Z,1003.69
2023-04-04T03:33:41.666Z,1003.67
2023-04-04T03:34:41.660Z,1003.70
2023-04-04T03:35:41.670Z,1003.59
2023-04-04T03:36:41.628Z,1003.59
2023-04-04T03:37:41.642Z,1003.61
2023-04-04T03:38:41.605Z,1003.68
2023-04-04T03:39:41.591Z,1003.59
2023-04-04T03:40:41.818Z,1003.66
2023-04-04T03:41:41.577Z,1003.63
2023-04-04T03:42:41.598Z,1003.59
2023-04-04T03:43:41.549Z,1003.64
2023-04-04T03:44:41.566Z,1003.61
2023-04-04T03:45:41.555Z,1003.62
2023-04-04T03:46:41.523Z,1003.65
2023-04-04T03:47:41.556Z,1003.60
2023-04-04T03:48:41.503Z,1003.58
2023-04-04T03:49:41.484Z,1003.60
2023-04-04T03:50:41.720Z,1003.56
2023-04-04T03:51:41.465Z,1003.52
2023-04-04T03:52:41.481Z,1003.63
2023-04-04T03:53:41.452Z,1003.62
2023-04-04T03:54:41.435Z,1003.60
2023-04-04T03:55:41.457Z,1003.54
2023-04-04T03:56:41.411Z,1003.48
2023-04-04T03:57:41.417Z,1003.45
2023-04-04T03:58:41.391Z,1003.45
2023-04-04T03:59:41.378Z,1003.48
2023-04-04T04:00:41.506Z,1003.54
2023-04-04T04:01:41.357Z,1003.54
2023-04-04T04:02:41.423Z,1003.42
2023-04-04T04:03:41.388Z,1003.47
2023-04-04T04:04:41.510Z,1003.54
2023-04-04T04:05:41.308Z,1003.45
2023-04-04T04:06:41.298Z,1003.50
2023-04-04T04:07:41.297Z,1003.48
2023-04-04T04:08:41.291Z,1003.48
2023-04-04T04:09:41.268Z,1003.45
2023-04-04T04:10:41.562Z,1003.49
2023-04-04T04:11:41.245Z,1003.51
2023-04-04T04:12:41.250Z,1003.54
2023-04-04T04:13:41.233Z,1003.55
2023-04-04T04:14:41.214Z,1003.55
2023-04-04T04:15:41.235Z,1003.56
2023-04-04T04:16:41.201Z,1003.55
2023-04-04T04:17:41.349Z,1003.47
2023-04-04T04:18:41.190Z,1003.52
2023-04-04T04:19:41.165Z,1003.50
2023-04-04T04:20:41.310Z,1003.51
2023-04-04T04:21:41.147Z,1003.52
2023-04-04T04:22:41.136Z,1003.49
2023-04-04T04:23:41.135Z,1003.60
2023-04-04T04:24:41.130Z,1003.54
2023-04-04T04:25:41.147Z,1003.54
2023-04-04T04:26:41.100Z,1003.49
2023-04-04T04:27:41.078Z,1003.49
2023-04-04T04:28:41.093Z,1003.51
2023-04-04T04:29:41.062Z,1003.54
2023-04-04T04:30:41.269Z,1003.49
2023-04-04T04:31:41.064Z,1003.59
2023-04-04T04:32:41.076Z,1003.56
2023-04-04T04:33:41.040Z,1003.51
2023-04-04T04:34:41.018Z,1003.47
2023-04-04T04:35:41.050Z,1003.47
2023-04-04T04:36:41.027Z,1003.49
2023-04-04T04:37:41.000Z,1003.37
2023-04-04T04:38:41.014Z,1003.49
2023-04-04T04:39:40.969Z,1003.57
2023-04-04T04:40:41.229Z,1003.55
2023-04-04T04:41:40.953Z,1003.40
2023-04-04T04:42:40.941Z,1003.51
2023-04-04T04:43:40.941Z,1003.43
2023-04-04T04:44:40.928Z,1003.43
2023-04-04T04:45:40.916Z,1003.42
2023-04-04T04:46:41.033Z,1003.42
2023-04-04T04:47:40.980Z,1003.36
2023-04-04T04:48:40.918Z,1003.42
2023-04-04T04:49:40.868Z,1003.40
2023-04-04T04:50:41.046Z,1003.43
2023-04-04T04:51:40.845Z,1003.34
2023-04-04T04:52:40.854Z,1003.36
2023-04-04T04:53:40.872Z,1003.36
2023-04-04T04:54:40.830Z,1003.32
2023-04-04T04:55:40.809Z,1003.44
2023-04-04T04:56:40.810Z,1003.32
2023-04-04T04:57:40.786Z,1003.34
2023-04-04T04:58:40.787Z,1003.37
2023-04-04T04:59:40.779Z,1003.36
2023-04-04T05:00:41.030Z,1003.30
2023-04-04T05:01:40.750Z,1003.34
2023-04-04T05:02:40.858Z,1003.31
2023-04-04T05:03:40.775Z,1003.34
2023-04-04T05:04:40.744Z,1003.35
2023-04-04T05:05:40.703Z,1003.47
2023-04-04T05:06:40.695Z,1003.31
2023-04-04T05:07:40.675Z,1003.30
2023-04-04T05:08:40.687Z,1003.32
2023-04-04T05:09:40.661Z,1003.33
2023-04-04T05:10:40.953Z,1003.35
2023-04-04T05:11:40.638Z,1003.33
2023-04-04T05:12:40.642Z,1003.45
2023-04-04T05:13:40.683Z,1003.43
2023-04-04T05:14:40.607Z,1003.41
2023-04-04T05:15:40.605Z,1003.35
2023-04-04T05:16:41.154Z,1003.40
2023-04-04T05:17:40.585Z,1003.54
2023-04-04T05:18:40.637Z,1003.51
2023-04-04T05:19:40.592Z,1003.49
2023-04-04T05:20:40.730Z,1003.47
2023-04-04T05:21:40.551Z,1003.47
2023-04-04T05:22:40.542Z,1003.52
2023-04-04T05:23:40.529Z,1003.49
2023-04-04T05:24:40.517Z,1003.52
2023-04-04T05:25:40.500Z,1003.48
2023-04-04T05:26:40.498Z,1003.56
2023-04-04T05:27:40.489Z,1003.57
2023-04-04T05:28:40.497Z,1003.57
2023-04-04T05:29:40.455Z,1003.54
2023-04-04T05:30:40.800Z,1003.65
2023-04-04T05:31:40.459Z,1003.54
2023-04-04T05:32:40.489Z,1003.60
2023-04-04T05:33:40.450Z,1003.55
2023-04-04T05:34:40.424Z,1003.61
2023-04-04T05:35:40.548Z,1003.64
2023-04-04T05:36:40.409Z,1003.63
2023-04-04T05:37:40.416Z,1003.75
2023-04-04T05:38:40.396Z,1003.64
2023-04-04T05:39:40.357Z,1003.77
2023-04-04T05:40:40.741Z,1003.68
2023-04-04T05:41:40.344Z,1003.70
2023-04-04T05:42:40.338Z,1003.70
2023-04-04T05:43:40.342Z,1003.74
2023-04-04T05:44:40.335Z,1003.72
2023-04-04T05:45:41.900Z,1003.75
2023-04-04T05:46:40.279Z,1003.74
2023-04-04T05:47:40.332Z,1003.84
2023-04-04T05:48:40.274Z,1003.84
2023-04-04T05:49:40.247Z,1003.74
2023-04-04T05:50:40.411Z,1003.78
2023-04-04T05:51:40.225Z,1003.72
2023-04-04T05:52:40.223Z,1003.78
2023-04-04T05:53:40.228Z,1003.80
2023-04-04T05:54:40.192Z,1003.73
2023-04-04T05:55:40.184Z,1003.89
2023-04-04T05:56:40.193Z,1003.81
2023-04-04T05:57:40.187Z,1003.71
2023-04-04T05:58:40.178Z,1003.78
2023-04-04T05:59:40.149Z,1003.75
2023-04-04T06:00:40.388Z,1003.81
2023-04-04T06:01:40.124Z,1003.80
2023-04-04T06:02:40.198Z,1003.82
2023-04-04T06:03:40.208Z,1003.85
2023-04-04T06:04:40.123Z,1003.82
2023-04-04T06:05:40.138Z,1003.77
2023-04-04T06:06:40.079Z,1003.83
2023-04-04T06:07:40.071Z,1003.83
2023-04-04T06:08:52.440Z,1003.86
2023-04-04T06:09:41.058Z,1003.86
2023-04-04T06:10:40.182Z,1003.93
2023-04-04T06:11:40.015Z,1003.83
2023-04-04T06:12:40.011Z,1003.85
2023-04-04T06:13:39.998Z,1003.99
2023-04-04T06:14:39.983Z,1003.85
2023-04-04T06:15:39.982Z,1003.90
2023-04-04T06:16:39.961Z,1003.88
2023-04-04T06:17:39.988Z,1003.97
2023-04-04T06:18:39.956Z,1003.96
2023-04-04T06:19:39.951Z,1003.99
2023-04-04T06:20:40.081Z,1003.97
2023-04-04T06:21:39.922Z,1003.98
2023-04-04T06:22:39.908Z,1003.92
2023-04-04T06:23:39.904Z,1004.06
2023-04-04T06:24:39.876Z,1003.97
2023-04-04T06:25:39.884Z,1003.98
2023-04-04T06:26:39.852Z,1003.99
2023-04-04T06:27:39.853Z,1004.00
2023-04-04T06:28:39.861Z,1003.96
2023-04-04T06:29:39.826Z,1004.04
2023-04-04T06:30:40.057Z,1004.03
2023-04-04T06:31:39.863Z,1004.08
2023-04-04T06:32:40.240Z,1004.12
2023-04-04T06:33:39.794Z,1004.08
2023-04-04T06:34:39.779Z,1003.99
2023-04-04T06:35:39.754Z,1004.07
2023-04-04T06:36:39.766Z,1004.07
2023-04-04T06:37:39.733Z,1004.07
2023-04-04T06:38:39.741Z,1004.08
2023-04-04T06:39:40.929Z,1004.08
2023-04-04T06:40:41.245Z,1004.08
2023-04-04T06:41:40.882Z,1004.21
2023-04-04T06:42:40.843Z,1004.15
2023-04-04T06:43:40.849Z,1004.19
2023-04-04T06:44:40.827Z,1004.20
2023-04-04T06:45:40.836Z,1004.15
2023-04-04T06:46:40.916Z,1004.20
2023-04-04T06:47:40.844Z,1004.16
2023-04-04T06:48:40.801Z,1004.26
2023-04-04T06:49:40.811Z,1004.12
2023-04-04T06:50:40.989Z,1004.19
2023-04-04T06:51:40.780Z,1004.15
2023-04-04T06:52:40.805Z,1004.23
2023-04-04T06:53:40.777Z,1004.16
2023-04-04T06:54:40.743Z,1004.17
2023-04-04T06:55:40.766Z,1004.11
2023-04-04T06:56:40.766Z,1004.17
2023-04-04T06:57:40.714Z,1004.17
2023-04-04T06:58:40.706Z,1004.15
2023-04-04T06:59:41.153Z,1004.25
2023-04-04T07:00:40.893Z,1004.25
2023-04-04T07:01:40.670Z,1004.21
2023-04-04T07:02:40.774Z,1004.22
2023-04-04T07:03:40.667Z,1004.17
2023-04-04T07:04:40.645Z,1004.19
2023-04-04T07:05:40.628Z,1004.15
2023-04-04T07:06:40.624Z,1004.18
2023-04-04T07:07:40.588Z,1004.14
2023-04-04T07:08:40.640Z,1004.11
2023-04-04T07:09:40.642Z,1004.15
2023-04-04T07:10:41.258Z,1004.10
2023-04-04T07:11:40.574Z,1004.04
2023-04-04T07:12:40.588Z,1004.06
2023-04-04T07:13:41.291Z,1004.13
2023-04-04T07:14:40.555Z,1004.10
2023-04-04T07:15:40.525Z,1004.01
2023-04-04T07:16:40.580Z,1004.09
2023-04-04T07:17:40.540Z,1004.07
2023-04-04T07:18:40.520Z,1004.02
2023-04-04T07:19:40.501Z,1004.04
2023-04-04T07:20:40.705Z,1004.00
2023-04-04T07:21:40.470Z,1004.01
2023-04-04T07:22:40.559Z,1003.95
2023-04-04T07:23:40.461Z,1004.04
2023-04-04T07:24:40.463Z,1003.90
2023-04-04T07:25:41.144Z,1003.92
2023-04-04T07:26:40.425Z,1003.94
2023-04-04T07:27:40.409Z,1003.98
2023-04-04T07:28:40.408Z,1003.92
2023-04-04T07:29:40.412Z,1003.92
2023-04-04T07:30:40.586Z,1004.01
2023-04-04T07:31:40.379Z,1003.96
2023-04-04T07:32:40.374Z,1003.96
2023-04-04T07:33:40.363Z,1003.94
2023-04-04T07:34:40.378Z,1004.00
2023-04-04T07:35:40.497Z,1004.12
2023-04-04T07:36:40.289Z,1003.98
2023-04-04T07:37:40.316Z,1003.98
2023-04-04T07:38:40.316Z,1004.00
2023-04-04T07:39:40.323Z,1003.98
2023-04-04T07:40:40.517Z,1004.04
2023-04-04T07:41:40.285Z,1003.96
2023-04-04T07:42:40.252Z,1004.03
2023-04-04T07:43:40.256Z,1004.02
2023-04-04T07:44:40.301Z,1004.07
2023-04-04T07:45:40.230Z,1004.04
2023-04-04T07:46:40.205Z,1003.97
2023-04-04T07:47:40.206Z,1004.03
2023-04-04T07:48:40.201Z,1003.99
2023-04-04T07:49:40.211Z,1003.97
2023-04-04T07:50:40.413Z,1004.06
2023-04-04T07:51:40.152Z,1004.01
2023-04-04T07:52:40.134Z,1004.09
2023-04-04T07:53:40.144Z,1004.05
2023-04-04T07:54:40.218Z,1004.07
2023-04-04T07:55:40.119Z,1004.09
2023-04-04T07:56:40.159Z,1004.12
2023-04-04T07:57:40.114Z,1004.12
2023-04-04T07:58:40.088Z,1004.21
2023-04-04T07:59:40.109Z,1004.08
2023-04-04T08:00:40.242Z,1004.10
2023-04-04T08:01:40.069Z,1004.19
2023-04-04T08:02:40.195Z,1004.09
2023-04-04T08:03:40.240Z,1004.08
2023-04-04T08:04:40.078Z,1004.15
2023-04-04T08:05:40.091Z,1004.16
2023-04-04T08:06:40.046Z,1004.07
2023-04-04T08:07:40.031Z,1004.07
2023-04-04T08:08:39.988Z,1004.21
2023-04-04T08:09:40.038Z,1004.13
2023-04-04T08:10:40.196Z,1004.14
2023-04-04T08:11:39.972Z,1004.09
2023-04-04T08:12:39.966Z,1004.07
2023-04-04T08:13:39.946Z,1004.08
2023-04-04T08:14:39.951Z,1004.14
2023-04-04T08:15:39.971Z,1004.10
2023-04-04T08:16:40.879Z,1004.08
2023-04-04T08:17:39.940Z,1004.19
2023-04-04T08:18:39.910Z,1004.11
2023-04-04T08:19:39.893Z,1004.04
2023-04-04T08:20:39.974Z,1004.10
2023-04-04T08:21:39.900Z,1003.98
2023-04-04T08:22:39.856Z,1004.10
2023-04-04T08:23:39.852Z,1004.01
2023-04-04T08:24:39.835Z,1004.06
2023-04-04T08:25:39.842Z,1004.16
2023-04-04T08:26:39.820Z,1004.17
2023-04-04T08:27:39.783Z,1004.07
2023-04-04T08:28:39.950Z,1004.13
2023-04-04T08:29:39.785Z,1004.10
2023-04-04T08:30:39.953Z,1004.08
2023-04-04T08:31:39.783Z,1004.02
2023-04-04T08:32:39.783Z,1004.15
2023-04-04T08:33:47.176Z,1004.09
2023-04-04T08:34:41.735Z,1004.11
2023-04-04T08:35:39.769Z,1004.19
2023-04-04T08:36:39.706Z,1004.15
2023-04-04T08:37:39.725Z,1004.06
2023-04-04T08:38:39.689Z,1004.01
2023-04-04T08:39:39.692Z,1004.05
2023-04-04T08:40:39.943Z,1004.08
2023-04-04T08:41:39.670Z,1004.06
2023-04-04T08:42:39.651Z,1003.98
2023-04-04T08:43:39.661Z,1004.02
2023-04-04T08:44:39.630Z,1004.03
2023-04-04T08:45:39.649Z,1004.10
2023-04-04T08:46:39.655Z,1004.00
2023-04-04T08:47:39.649Z,1003.95
2023-04-04T08:48:39.619Z,1004.14
2023-04-04T08:49:39.593Z,1004.01
2023-04-04T08:50:39.715Z,1004.01
2023-04-04T08:51:39.569Z,1004.00
2023-04-04T08:52:40.556Z,1004.01
2023-04-04T08:53:39.582Z,1003.89
2023-04-04T08:54:39.562Z,1004.08
2023-04-04T08:55:39.528Z,1004.07
2023-04-04T08:56:39.526Z,1003.97
2023-04-04T08:57:39.524Z,1004.04
2023-04-04T08:58:39.515Z,1004.06
2023-04-04T08:59:39.764Z,1004.04
2023-04-04T09:00:39.683Z,1004.02
2023-04-04T09:01:39.516Z,1003.99
2023-04-04T09:02:39.581Z,1004.01
2023-04-04T09:03:39.474Z,1004.06
2023-04-04T09:04:39.580Z,1004.00
2023-04-04T09:05:39.454Z,1004.03
2023-04-04T09:06:39.503Z,1004.05
2023-04-04T09:07:39.916Z,1004.03
2023-04-04T09:08:40.445Z,1004.14
2023-04-04T09:09:39.406Z,1004.09
2023-04-04T09:10:39.565Z,1004.09
2023-04-04T09:11:39.386Z,1004.10
2023-04-04T09:12:39.386Z,1004.17
2023-04-04T09:13:41.272Z,1004.11
2023-04-04T09:14:39.372Z,1004.20
2023-04-04T09:15:39.340Z,1004.15
2023-04-04T09:16:39.367Z,1004.12
2023-04-04T09:17:39.369Z,1004.15
2023-04-04T09:18:39.307Z,1004.14
2023-04-04T09:19:40.326Z,1004.10
2023-04-04T09:20:39.603Z,1004.09
2023-04-04T09:21:39.280Z,1004.05
2023-04-04T09:22:39.293Z,1004.12
2023-04-04T09:23:39.291Z,1004.13
2023-04-04T09:24:39.285Z,1004.04
2023-04-04T09:25:39.262Z,1004.07
2023-04-04T09:26:39.232Z,1004.04
2023-04-04T09:27:39.240Z,1004.05
2023-04-04T09:28:39.238Z,1004.05
2023-04-04T09:29:39.232Z,1004.06
2023-04-04T09:30:39.492Z,1004.04
2023-04-04T09:31:39.198Z,1003.98
2023-04-04T09:32:39.386Z,1004.12
2023-04-04T09:33:39.167Z,1004.06
2023-04-04T09:34:39.205Z,1004.05
2023-04-04T09:35:39.192Z,1004.10
2023-04-04T09:36:39.160Z,1003.98
2023-04-04T09:37:39.088Z,1004.00
2023-04-04T09:38:39.104Z,1004.03
2023-04-04T09:39:39.071Z,1004.06
2023-04-04T09:40:39.305Z,1004.00
2023-04-04T09:41:39.020Z,1004.05
2023-04-04T09:42:40.097Z,1004.02
2023-04-04T09:43:39.032Z,1003.99
2023-04-04T09:44:39.090Z,1004.02
2023-04-04T09:45:39.063Z,1004.10
2023-04-04T09:46:39.146Z,1003.98
2023-04-04T09:47:39.069Z,1003.95
2023-04-04T09:48:38.985Z,1003.97
2023-04-04T09:49:39.988Z,1003.97
2023-04-04T09:50:39.161Z,1003.97
2023-04-04T09:51:39.976Z,1004.00
2023-04-04T09:52:38.988Z,1004.06
2023-04-04T09:53:38.960Z,1004.06
2023-04-04T09:54:48.057Z,1004.03
2023-04-04T09:55:41.134Z,1004.09
2023-04-04T09:56:38.934Z,1004.04
2023-04-04T09:57:38.887Z,1004.05
2023-04-04T09:58:46.303Z,1004.03
2023-04-04T09:59:39.927Z,1004.08
2023-04-04T10:00:39.126Z,1004.02
2023-04-04T10:01:38.907Z,1004.07
2023-04-04T10:02:38.898Z,1004.10
2023-04-04T10:03:38.858Z,1004.01
2023-04-04T10:04:38.833Z,1004.04
2023-04-04T10:05:38.825Z,1004.03
2023-04-04T10:06:38.858Z,1004.06
2023-04-04T10:07:38.813Z,1004.02
2023-04-04T10:08:38.814Z,1004.01
2023-04-04T10:09:38.845Z,1004.06
2023-04-04T10:10:38.941Z,1004.04
2023-04-04T10:11:38.764Z,1003.98
2023-04-04T10:12:38.765Z,1004.04
2023-04-04T10:13:38.777Z,1003.96
2023-04-04T10:14:38.710Z,1004.01
2023-04-04T10:15:38.777Z,1003.91
2023-04-04T10:16:38.801Z,1003.92
2023-04-04T10:17:38.751Z,1003.98
2023-04-04T10:18:38.729Z,1003.95
2023-04-04T10:19:38.701Z,1003.99
2023-04-04T10:20:38.821Z,1003.97
2023-04-04T10:21:38.704Z,1003.96
2023-04-04T10:22:38.660Z,1003.99
2023-04-04T10:23:38.735Z,1004.09
2023-04-04T10:24:38.720Z,1003.98
2023-04-04T10:25:38.794Z,1003.93
2023-04-04T10:26:38.660Z,1004.00
2023-04-04T10:27:38.655Z,1003.96
2023-04-04T10:28:38.637Z,1003.90
2023-04-04T10:29:38.672Z,1003.97
2023-04-04T10:30:38.841Z,1003.82
2023-04-04T10:31:38.659Z,1003.89
2023-04-04T10:32:38.690Z,1003.87
2023-04-04T10:33:38.608Z,1003.85
2023-04-04T10:34:38.571Z,1003.86
2023-04-04T10:35:38.610Z,1003.83
2023-04-04T10:36:38.575Z,1003.90
2023-04-04T10:37:38.549Z,1003.86
2023-04-04T10:38:38.579Z,1003.86
2023-04-04T10:39:38.518Z,1003.89
2023-04-04T10:40:38.953Z,1003.90
2023-04-04T10:41:38.493Z,1003.80
2023-04-04T10:42:38.502Z,1003.97
2023-04-04T10:44:08.743Z,1003.96
2023-04-04T10:44:39.425Z,1003.93
2023-04-04T10:45:38.646Z,1003.92
2023-04-04T10:46:38.562Z,1003.91
2023-04-04T10:47:38.567Z,1003.94
2023-04-04T10:48:38.378Z,1003.91
2023-04-04T10:49:39.591Z,1003.93
2023-04-04T10:50:38.431Z,1003.94
2023-04-04T10:51:48.800Z,1003.88
2023-04-04T10:52:40.430Z,1003.87
2023-04-04T10:53:38.405Z,1003.84
2023-04-04T10:54:38.372Z,1003.84
2023-04-04T10:55:38.582Z,1003.89
2023-04-04T10:56:38.430Z,1003.83
2023-04-04T10:57:38.400Z,1003.82
2023-04-04T10:58:38.967Z,1003.80
2023-04-04T10:59:38.383Z,1003.80
2023-04-04T11:00:38.405Z,1003.67
2023-04-04T11:01:38.395Z,1003.69
2023-04-04T11:02:38.363Z,1003.71
2023-04-04T11:03:38.295Z,1003.70
2023-04-04T11:04:38.362Z,1003.59
2023-04-04T11:05:38.312Z,1003.63
2023-04-04T11:06:38.228Z,1003.63
2023-04-04T11:07:38.276Z,1003.60
2023-04-04T11:08:38.204Z,1003.60
2023-04-04T11:09:38.198Z,1003.62
2023-04-04T11:10:38.199Z,1003.60
2023-04-04T11:11:38.243Z,1003.58
2023-04-04T11:12:38.177Z,1003.49
2023-04-04T11:13:38.216Z,1003.56
2023-04-04T11:14:38.179Z,1003.50
2023-04-04T11:15:38.439Z,1003.44
2023-04-04T11:16:38.183Z,1003.35
2023-04-04T11:17:38.161Z,1003.36
2023-04-04T11:18:38.252Z,1003.52
2023-04-04T11:19:38.110Z,1003.39
2023-04-04T11:20:38.104Z,1003.35
2023-04-04T11:21:38.136Z,1003.41
2023-04-04T11:22:38.083Z,1003.38
2023-04-04T11:23:38.041Z,1003.40
2023-04-04T11:24:38.084Z,1003.37
2023-04-04T11:25:38.313Z,1003.32
2023-04-04T11:26:38.061Z,1003.30
2023-04-04T11:27:38.034Z,1003.29
2023-04-04T11:28:38.049Z,1003.39
2023-04-04T11:29:38.002Z,1003.32
2023-04-04T11:30:38.057Z,1003.37
2023-04-04T11:31:38.015Z,1003.26
2023-04-04T11:32:38.058Z,1003.21
2023-04-04T11:33:38.015Z,1003.22
2023-04-04T11:34:37.982Z,1003.20
2023-04-04T11:35:38.219Z,1003.23
2023-04-04T11:36:38.011Z,1003.24
2023-04-04T11:37:37.934Z,1003.17
2023-04-04T11:38:37.940Z,1003.29
2023-04-04T11:39:37.961Z,1003.26
2023-04-04T11:40:38.152Z,1003.24
2023-04-04T11:41:37.968Z,1003.27
2023-04-04T11:42:37.917Z,1003.31
2023-04-04T11:43:37.936Z,1003.27
2023-04-04T11:44:37.892Z,1003.28
2023-04-04T11:45:38.359Z,1003.18
2023-04-04T11:46:38.149Z,1003.09
2023-04-04T11:47:40.773Z,1003.18
2023-04-04T11:48:37.938Z,1003.18
2023-04-04T11:49:37.918Z,1003.11
2023-04-04T11:50:37.942Z,1003.15
2023-04-04T11:51:37.966Z,1003.07
2023-04-04T11:52:39.756Z,1003.13
2023-04-04T11:53:37.943Z,1003.17
2023-04-04T11:54:37.905Z,1003.17
2023-04-04T11:55:38.129Z,1003.13
2023-04-04T11:56:37.872Z,1003.05
2023-04-04T11:57:37.843Z,1003.09
2023-04-04T11:58:37.772Z,1003.01
2023-04-04T11:59:37.829Z,1003.10
2023-04-04T12:00:37.876Z,1003.02
2023-04-04T12:01:37.851Z,1003.02
2023-04-04T12:02:38.156Z,1002.96
2023-04-04T12:03:39.304Z,1002.96
2023-04-04T12:04:38.864Z,1002.90
2023-04-04T12:05:38.192Z,1002.97